sensor_id;sensor_type;location;lat;lon;timestamp;P1;durP1;ratioP1;P2;durP2;ratioP2
7173;SDS011;3628;48.654;8.932;2023-03-13T00:01:12;5.37;;;1.50;;
7173;SDS011;3628;48.654;8.932;2023-03-13T00:03:38;5.93;;;1.43;;
7173;SDS011;3628;48.654;8.932;2023-03-13T00:06:03;4.33;;;1.37;;
7173;SDS011;3628;48.654;8.932;2023-03-13T00:08:29;5.03;;;1.43;;
7173;SDS011;3628;48.654;8.932;2023-03-13T00:10:55;7.03;;;1.73;;
7173;SDS011;3628;48.654;8.932;2023-03-13T00:13:22;8.33;;;1.40;;
7173;SDS011;3628;48.654;8.932;2023-03-13T00:15:47;4.90;;;1.20;;
7173;SDS011;3628;48.654;8.932;2023-03-13T00:18:13;5.97;;;1.70;;
7173;SDS011;3628;48.654;8.932;2023-03-13T00:20:39;8.20;;;1.23;;
7173;SDS011;3628;48.654;8.932;2023-03-13T00:23:04;5.00;;;1.33;;
7173;SDS011;3628;48.654;8.932;2023-03-13T00:25:30;7.30;;;1.40;;
7173;SDS011;3628;48.654;8.932;2023-03-13T00:27:55;3.97;;;1.10;;
7173;SDS011;3628;48.654;8.932;2023-03-13T00:30:21;3.87;;;1.20;;
7173;SDS011;3628;48.654;8.932;2023-03-13T00:32:47;4.27;;;1.20;;
7173;SDS011;3628;48.654;8.932;2023-03-13T00:35:13;5.83;;;1.70;;
7173;SDS011;3628;48.654;8.932;2023-03-13T00:37:39;4.53;;;1.40;;
7173;SDS011;3628;48.654;8.932;2023-03-13T00:40:05;7.37;;;1.50;;
7173;SDS011;3628;48.654;8.932;2023-03-13T00:42:32;5.40;;;1.37;;
7173;SDS011;3628;48.654;8.932;2023-03-13T00:44:57;5.50;;;1.30;;
7173;SDS011;3628;48.654;8.932;2023-03-13T00:47:23;4.43;;;1.23;;
7173;SDS011;3628;48.654;8.932;2023-03-13T00:49:48;3.10;;;0.93;;
7173;SDS011;3628;48.654;8.932;2023-03-13T00:52:14;5.07;;;1.00;;
7173;SDS011;3628;48.654;8.932;2023-03-13T00:54:40;2.93;;;1.10;;
7173;SDS011;3628;48.654;8.932;2023-03-13T00:57:05;4.67;;;1.07;;
7173;SDS011;3628;48.654;8.932;2023-03-13T00:59:31;4.03;;;1.10;;
7173;SDS011;3628;48.654;8.932;2023-03-13T01:01:56;5.07;;;1.27;;
7173;SDS011;3628;48.654;8.932;2023-03-13T01:04:22;4.40;;;1.30;;
7173;SDS011;3628;48.654;8.932;2023-03-13T01:06:47;4.30;;;0.80;;
7173;SDS011;3628;48.654;8.932;2023-03-13T01:09:14;6.83;;;1.10;;
7173;SDS011;3628;48.654;8.932;2023-03-13T01:11:41;5.13;;;1.33;;
7173;SDS011;3628;48.654;8.932;2023-03-13T01:14:08;5.23;;;0.93;;
7173;SDS011;3628;48.654;8.932;2023-03-13T01:16:36;4.27;;;1.43;;
7173;SDS011;3628;48.654;8.932;2023-03-13T01:19:03;3.20;;;0.90;;
7173;SDS011;3628;48.654;8.932;2023-03-13T01:21:30;5.97;;;1.20;;
7173;SDS011;3628;48.654;8.932;2023-03-13T01:23:56;4.00;;;0.80;;
7173;SDS011;3628;48.654;8.932;2023-03-13T01:26:22;7.57;;;1.50;;
7173;SDS011;3628;48.654;8.932;2023-03-13T01:28:48;4.93;;;1.03;;
7173;SDS011;3628;48.654;8.932;2023-03-13T01:31:21;2.37;;;1.00;;
7173;SDS011;3628;48.654;8.932;2023-03-13T01:33:47;3.37;;;0.83;;
7173;SDS011;3628;48.654;8.932;2023-03-13T01:36:14;3.97;;;0.90;;
7173;SDS011;3628;48.654;8.932;2023-03-13T01:38:40;5.37;;;1.20;;
7173;SDS011;3628;48.654;8.932;2023-03-13T01:41:07;4.77;;;1.10;;
7173;SDS011;3628;48.654;8.932;2023-03-13T01:43:35;4.07;;;1.00;;
7173;SDS011;3628;48.654;8.932;2023-03-13T01:46:12;3.47;;;0.97;;
7173;SDS011;3628;48.654;8.932;2023-03-13T01:48:44;3.50;;;1.10;;
7173;SDS011;3628;48.654;8.932;2023-03-13T01:51:21;3.97;;;1.43;;
7173;SDS011;3628;48.654;8.932;2023-03-13T01:53:53;3.70;;;1.03;;
7173;SDS011;3628;48.654;8.932;2023-03-13T01:56:57;4.17;;;1.17;;
7173;SDS011;3628;48.654;8.932;2023-03-13T01:59:16;4.93;;;1.00;;
7173;SDS011;3628;48.654;8.932;2023-03-13T02:01:46;1.73;;;0.70;;
7173;SDS011;3628;48.654;8.932;2023-03-13T02:04:15;5.17;;;0.80;;
7173;SDS011;3628;48.654;8.932;2023-03-13T02:06:43;4.53;;;1.03;;
7173;SDS011;3628;48.654;8.932;2023-03-13T02:09:13;2.13;;;0.70;;
7173;SDS011;3628;48.654;8.932;2023-03-13T02:14:31;2.27;;;0.90;;
7173;SDS011;3628;48.654;8.932;2023-03-13T02:16:59;4.63;;;1.07;;
7173;SDS011;3628;48.654;8.932;2023-03-13T02:19:45;3.43;;;1.03;;
7173;SDS011;3628;48.654;8.932;2023-03-13T02:27:49;2.57;;;0.80;;
7173;SDS011;3628;48.654;8.932;2023-03-13T02:30:21;2.20;;;0.47;;
7173;SDS011;3628;48.654;8.932;2023-03-13T02:32:47;1.70;;;0.80;;
7173;SDS011;3628;48.654;8.932;2023-03-13T02:35:13;1.97;;;0.70;;
7173;SDS011;3628;48.654;8.932;2023-03-13T02:37:41;2.23;;;0.60;;
7173;SDS011;3628;48.654;8.932;2023-03-13T02:40:11;2.10;;;0.67;;
7173;SDS011;3628;48.654;8.932;2023-03-13T02:42:40;3.00;;;0.83;;
7173;SDS011;3628;48.654;8.932;2023-03-13T02:45:09;2.77;;;0.77;;
7173;SDS011;3628;48.654;8.932;2023-03-13T02:47:37;2.97;;;0.90;;
7173;SDS011;3628;48.654;8.932;2023-03-13T02:50:02;2.57;;;0.97;;
7173;SDS011;3628;48.654;8.932;2023-03-13T02:52:29;1.97;;;0.70;;
7173;SDS011;3628;48.654;8.932;2023-03-13T02:55:04;1.37;;;0.50;;
7173;SDS011;3628;48.654;8.932;2023-03-13T02:57:32;0.87;;;0.57;;
7173;SDS011;3628;48.654;8.932;2023-03-13T02:59:59;4.67;;;1.03;;
7173;SDS011;3628;48.654;8.932;2023-03-13T03:02:25;2.90;;;0.87;;
7173;SDS011;3628;48.654;8.932;2023-03-13T03:04:50;3.07;;;0.67;;
7173;SDS011;3628;48.654;8.932;2023-03-13T03:07:16;3.47;;;0.80;;
7173;SDS011;3628;48.654;8.932;2023-03-13T03:09:41;2.17;;;0.70;;
7173;SDS011;3628;48.654;8.932;2023-03-13T03:12:07;3.63;;;1.00;;
7173;SDS011;3628;48.654;8.932;2023-03-13T03:14:32;3.20;;;0.63;;
7173;SDS011;3628;48.654;8.932;2023-03-13T03:16:58;2.57;;;0.77;;
7173;SDS011;3628;48.654;8.932;2023-03-13T03:19:24;2.33;;;0.60;;
7173;SDS011;3628;48.654;8.932;2023-03-13T03:21:49;3.50;;;1.03;;
7173;SDS011;3628;48.654;8.932;2023-03-13T03:24:15;4.80;;;0.60;;
7173;SDS011;3628;48.654;8.932;2023-03-13T03:26:43;3.17;;;0.80;;
7173;SDS011;3628;48.654;8.932;2023-03-13T03:29:09;3.07;;;0.70;;
7173;SDS011;3628;48.654;8.932;2023-03-13T03:31:35;1.70;;;0.50;;
7173;SDS011;3628;48.654;8.932;2023-03-13T03:34:00;1.00;;;0.40;;
7173;SDS011;3628;48.654;8.932;2023-03-13T03:36:26;4.03;;;0.83;;
7173;SDS011;3628;48.654;8.932;2023-03-13T03:38:51;1.10;;;0.50;;
7173;SDS011;3628;48.654;8.932;2023-03-13T03:41:17;1.90;;;0.40;;
7173;SDS011;3628;48.654;8.932;2023-03-13T03:43:43;0.83;;;0.33;;
7173;SDS011;3628;48.654;8.932;2023-03-13T03:46:09;0.57;;;0.30;;
7173;SDS011;3628;48.654;8.932;2023-03-13T03:48:35;1.13;;;0.50;;
7173;SDS011;3628;48.654;8.932;2023-03-13T03:51:01;1.13;;;0.40;;
7173;SDS011;3628;48.654;8.932;2023-03-13T03:53:27;1.23;;;0.40;;
7173;SDS011;3628;48.654;8.932;2023-03-13T03:55:52;1.23;;;0.43;;
7173;SDS011;3628;48.654;8.932;2023-03-13T03:58:18;2.23;;;0.50;;
7173;SDS011;3628;48.654;8.932;2023-03-13T04:00:44;2.73;;;0.33;;
7173;SDS011;3628;48.654;8.932;2023-03-13T04:03:11;1.23;;;0.33;;
7173;SDS011;3628;48.654;8.932;2023-03-13T04:05:36;1.10;;;0.40;;
7173;SDS011;3628;48.654;8.932;2023-03-13T04:08:02;0.70;;;0.30;;
7173;SDS011;3628;48.654;8.932;2023-03-13T04:10:28;0.43;;;0.40;;
7173;SDS011;3628;48.654;8.932;2023-03-13T04:12:53;1.40;;;0.47;;
7173;SDS011;3628;48.654;8.932;2023-03-13T04:15:19;1.23;;;0.40;;
7173;SDS011;3628;48.654;8.932;2023-03-13T04:17:44;2.27;;;0.50;;
7173;SDS011;3628;48.654;8.932;2023-03-13T04:20:10;1.97;;;0.43;;
7173;SDS011;3628;48.654;8.932;2023-03-13T04:22:37;1.13;;;0.30;;
7173;SDS011;3628;48.654;8.932;2023-03-13T04:25:03;0.83;;;0.20;;
7173;SDS011;3628;48.654;8.932;2023-03-13T04:27:29;0.97;;;0.40;;
7173;SDS011;3628;48.654;8.932;2023-03-13T04:29:54;1.20;;;0.50;;
7173;SDS011;3628;48.654;8.932;2023-03-13T04:32:20;1.03;;;0.40;;
7173;SDS011;3628;48.654;8.932;2023-03-13T04:34:45;1.00;;;0.20;;
7173;SDS011;3628;48.654;8.932;2023-03-13T04:37:11;0.87;;;0.53;;
7173;SDS011;3628;48.654;8.932;2023-03-13T04:39:36;0.77;;;0.50;;
7173;SDS011;3628;48.654;8.932;2023-03-13T04:42:02;1.17;;;0.33;;
7173;SDS011;3628;48.654;8.932;2023-03-13T04:44:28;0.60;;;0.40;;
7173;SDS011;3628;48.654;8.932;2023-03-13T04:46:53;0.50;;;0.30;;
7173;SDS011;3628;48.654;8.932;2023-03-13T04:49:19;0.97;;;0.50;;
7173;SDS011;3628;48.654;8.932;2023-03-13T04:51:44;0.87;;;0.43;;
7173;SDS011;3628;48.654;8.932;2023-03-13T04:54:10;0.93;;;0.30;;
7173;SDS011;3628;48.654;8.932;2023-03-13T04:56:36;0.33;;;0.30;;
7173;SDS011;3628;48.654;8.932;2023-03-13T04:59:02;0.20;;;0.10;;
7173;SDS011;3628;48.654;8.932;2023-03-13T05:01:28;0.87;;;0.30;;
7173;SDS011;3628;48.654;8.932;2023-03-13T05:03:53;0.53;;;0.33;;
7173;SDS011;3628;48.654;8.932;2023-03-13T05:06:19;0.73;;;0.30;;
7173;SDS011;3628;48.654;8.932;2023-03-13T05:08:44;1.00;;;0.20;;
7173;SDS011;3628;48.654;8.932;2023-03-13T05:11:10;2.37;;;0.40;;
7173;SDS011;3628;48.654;8.932;2023-03-13T05:13:35;0.20;;;0.20;;
7173;SDS011;3628;48.654;8.932;2023-03-13T05:16:01;1.83;;;0.37;;
7173;SDS011;3628;48.654;8.932;2023-03-13T05:18:27;1.20;;;0.30;;
7173;SDS011;3628;48.654;8.932;2023-03-13T05:20:52;0.60;;;0.20;;
7173;SDS011;3628;48.654;8.932;2023-03-13T05:23:18;0.80;;;0.30;;
7173;SDS011;3628;48.654;8.932;2023-03-13T05:25:43;1.17;;;0.10;;
7173;SDS011;3628;48.654;8.932;2023-03-13T05:28:09;1.03;;;0.30;;
7173;SDS011;3628;48.654;8.932;2023-03-13T05:30:34;1.00;;;0.30;;
7173;SDS011;3628;48.654;8.932;2023-03-13T05:33:00;0.70;;;0.40;;
7173;SDS011;3628;48.654;8.932;2023-03-13T05:35:25;1.23;;;0.27;;
7173;SDS011;3628;48.654;8.932;2023-03-13T05:37:51;0.10;;;0.10;;
7173;SDS011;3628;48.654;8.932;2023-03-13T05:40:16;0.53;;;0.20;;
7173;SDS011;3628;48.654;8.932;2023-03-13T05:42:43;0.60;;;0.20;;
7173;SDS011;3628;48.654;8.932;2023-03-13T05:45:09;0.20;;;0.17;;
7173;SDS011;3628;48.654;8.932;2023-03-13T05:47:35;0.20;;;0.20;;
7173;SDS011;3628;48.654;8.932;2023-03-13T05:50:02;1.70;;;0.30;;
7173;SDS011;3628;48.654;8.932;2023-03-13T05:52:29;1.03;;;0.27;;
7173;SDS011;3628;48.654;8.932;2023-03-13T05:54:55;0.97;;;0.20;;
7173;SDS011;3628;48.654;8.932;2023-03-13T05:57:20;0.47;;;0.20;;
7173;SDS011;3628;48.654;8.932;2023-03-13T05:59:46;0.63;;;0.30;;
7173;SDS011;3628;48.654;8.932;2023-03-13T06:02:11;0.50;;;0.30;;
7173;SDS011;3628;48.654;8.932;2023-03-13T06:04:37;0.27;;;0.17;;
7173;SDS011;3628;48.654;8.932;2023-03-13T06:07:02;1.27;;;0.33;;
7173;SDS011;3628;48.654;8.932;2023-03-13T06:09:28;0.20;;;0.20;;
7173;SDS011;3628;48.654;8.932;2023-03-13T06:11:53;0.60;;;0.20;;
7173;SDS011;3628;48.654;8.932;2023-03-13T06:14:19;0.43;;;0.20;;
7173;SDS011;3628;48.654;8.932;2023-03-13T06:16:44;1.20;;;0.20;;
7173;SDS011;3628;48.654;8.932;2023-03-13T06:19:10;0.47;;;0.10;;
7173;SDS011;3628;48.654;8.932;2023-03-13T06:21:36;0.50;;;0.40;;
7173;SDS011;3628;48.654;8.932;2023-03-13T06:24:02;0.10;;;0.10;;
7173;SDS011;3628;48.654;8.932;2023-03-13T06:26:28;0.53;;;0.10;;
7173;SDS011;3628;48.654;8.932;2023-03-13T06:28:53;0.87;;;0.33;;
7173;SDS011;3628;48.654;8.932;2023-03-13T06:31:19;0.30;;;0.17;;
7173;SDS011;3628;48.654;8.932;2023-03-13T06:33:44;0.53;;;0.20;;
7173;SDS011;3628;48.654;8.932;2023-03-13T06:36:10;0.87;;;0.20;;
7173;SDS011;3628;48.654;8.932;2023-03-13T06:38:36;0.20;;;0.20;;
7173;SDS011;3628;48.654;8.932;2023-03-13T06:41:02;0.10;;;0.10;;
7173;SDS011;3628;48.654;8.932;2023-03-13T06:43:27;0.37;;;0.10;;
7173;SDS011;3628;48.654;8.932;2023-03-13T06:45:53;0.20;;;0.20;;
7173;SDS011;3628;48.654;8.932;2023-03-13T06:48:18;0.80;;;0.20;;
7173;SDS011;3628;48.654;8.932;2023-03-13T06:50:46;0.13;;;0.10;;
7173;SDS011;3628;48.654;8.932;2023-03-13T06:53:13;0.63;;;0.40;;
7173;SDS011;3628;48.654;8.932;2023-03-13T06:55:41;0.37;;;0.17;;
7173;SDS011;3628;48.654;8.932;2023-03-13T06:58:07;1.63;;;0.40;;
7173;SDS011;3628;48.654;8.932;2023-03-13T07:00:32;0.10;;;0.10;;
7173;SDS011;3628;48.654;8.932;2023-03-13T07:02:58;0.70;;;0.30;;
7173;SDS011;3628;48.654;8.932;2023-03-13T07:05:24;3.10;;;0.30;;
7173;SDS011;3628;48.654;8.932;2023-03-13T07:07:49;0.40;;;0.20;;
7173;SDS011;3628;48.654;8.932;2023-03-13T07:10:15;0.30;;;0.30;;
7173;SDS011;3628;48.654;8.932;2023-03-13T07:12:41;0.27;;;0.20;;
7173;SDS011;3628;48.654;8.932;2023-03-13T07:15:06;0.60;;;0.20;;
7173;SDS011;3628;48.654;8.932;2023-03-13T07:17:32;0.67;;;0.40;;
7173;SDS011;3628;48.654;8.932;2023-03-13T07:19:58;0.40;;;0.20;;
7173;SDS011;3628;48.654;8.932;2023-03-13T07:22:23;0.43;;;0.37;;
7173;SDS011;3628;48.654;8.932;2023-03-13T07:24:49;0.27;;;0.27;;
7173;SDS011;3628;48.654;8.932;2023-03-13T07:27:15;0.53;;;0.27;;
7173;SDS011;3628;48.654;8.932;2023-03-13T07:29:41;0.27;;;0.27;;
7173;SDS011;3628;48.654;8.932;2023-03-13T07:32:07;0.10;;;0.10;;
7173;SDS011;3628;48.654;8.932;2023-03-13T07:34:32;0.33;;;0.20;;
7173;SDS011;3628;48.654;8.932;2023-03-13T07:36:58;0.73;;;0.20;;
7173;SDS011;3628;48.654;8.932;2023-03-13T07:39:23;0.67;;;0.30;;
7173;SDS011;3628;48.654;8.932;2023-03-13T07:41:49;0.40;;;0.40;;
7173;SDS011;3628;48.654;8.932;2023-03-13T07:44:14;0.57;;;0.40;;
7173;SDS011;3628;48.654;8.932;2023-03-13T07:46:40;1.30;;;0.20;;
7173;SDS011;3628;48.654;8.932;2023-03-13T07:49:05;0.87;;;0.30;;
7173;SDS011;3628;48.654;8.932;2023-03-13T07:51:31;1.03;;;0.43;;
7173;SDS011;3628;48.654;8.932;2023-03-13T07:53:57;0.50;;;0.27;;
7173;SDS011;3628;48.654;8.932;2023-03-13T07:56:22;0.30;;;0.30;;
7173;SDS011;3628;48.654;8.932;2023-03-13T07:58:48;0.30;;;0.30;;
7173;SDS011;3628;48.654;8.932;2023-03-13T08:01:15;0.40;;;0.40;;
7173;SDS011;3628;48.654;8.932;2023-03-13T08:03:43;0.40;;;0.40;;
7173;SDS011;3628;48.654;8.932;2023-03-13T08:06:11;0.50;;;0.20;;
7173;SDS011;3628;48.654;8.932;2023-03-13T08:08:38;0.60;;;0.30;;
7173;SDS011;3628;48.654;8.932;2023-03-13T08:11:05;0.33;;;0.30;;
7173;SDS011;3628;48.654;8.932;2023-03-13T08:13:32;2.00;;;0.40;;
7173;SDS011;3628;48.654;8.932;2023-03-13T08:18:32;0.30;;;0.20;;
7173;SDS011;3628;48.654;8.932;2023-03-13T08:21:02;0.40;;;0.27;;
7173;SDS011;3628;48.654;8.932;2023-03-13T08:23:30;0.30;;;0.30;;
7173;SDS011;3628;48.654;8.932;2023-03-13T08:26:00;1.03;;;0.40;;
7173;SDS011;3628;48.654;8.932;2023-03-13T08:28:32;0.73;;;0.43;;
7173;SDS011;3628;48.654;8.932;2023-03-13T08:30:58;1.20;;;0.53;;
7173;SDS011;3628;48.654;8.932;2023-03-13T08:33:30;0.70;;;0.40;;
7173;SDS011;3628;48.654;8.932;2023-03-13T08:35:55;0.87;;;0.30;;
7173;SDS011;3628;48.654;8.932;2023-03-13T08:38:20;1.03;;;0.33;;
7173;SDS011;3628;48.654;8.932;2023-03-13T08:40:46;0.53;;;0.40;;
7173;SDS011;3628;48.654;8.932;2023-03-13T08:43:12;0.43;;;0.30;;
7173;SDS011;3628;48.654;8.932;2023-03-13T08:45:37;0.30;;;0.20;;
7173;SDS011;3628;48.654;8.932;2023-03-13T08:48:03;0.93;;;0.50;;
7173;SDS011;3628;48.654;8.932;2023-03-13T08:50:28;3.80;;;0.60;;
7173;SDS011;3628;48.654;8.932;2023-03-13T08:52:54;0.30;;;0.30;;
7173;SDS011;3628;48.654;8.932;2023-03-13T08:55:19;0.97;;;0.50;;
7173;SDS011;3628;48.654;8.932;2023-03-13T08:57:45;2.80;;;0.40;;
7173;SDS011;3628;48.654;8.932;2023-03-13T09:00:10;2.47;;;0.30;;
7173;SDS011;3628;48.654;8.932;2023-03-13T09:02:37;1.17;;;0.40;;
7173;SDS011;3628;48.654;8.932;2023-03-13T09:05:03;1.37;;;0.80;;
7173;SDS011;3628;48.654;8.932;2023-03-13T09:07:29;0.30;;;0.30;;
7173;SDS011;3628;48.654;8.932;2023-03-13T09:09:54;0.60;;;0.30;;
7173;SDS011;3628;48.654;8.932;2023-03-13T09:12:20;2.47;;;0.40;;
7173;SDS011;3628;48.654;8.932;2023-03-13T09:14:46;0.63;;;0.37;;
7173;SDS011;3628;48.654;8.932;2023-03-13T09:17:12;1.93;;;0.40;;
7173;SDS011;3628;48.654;8.932;2023-03-13T09:19:37;0.33;;;0.30;;
7173;SDS011;3628;48.654;8.932;2023-03-13T09:22:03;2.33;;;0.60;;
7173;SDS011;3628;48.654;8.932;2023-03-13T09:24:28;1.00;;;0.30;;
7173;SDS011;3628;48.654;8.932;2023-03-13T09:26:54;0.67;;;0.43;;
7173;SDS011;3628;48.654;8.932;2023-03-13T09:29:20;0.63;;;0.33;;
7173;SDS011;3628;48.654;8.932;2023-03-13T09:31:45;0.87;;;0.50;;
7173;SDS011;3628;48.654;8.932;2023-03-13T09:34:11;0.50;;;0.30;;
7173;SDS011;3628;48.654;8.932;2023-03-13T09:36:36;1.27;;;0.60;;
7173;SDS011;3628;48.654;8.932;2023-03-13T09:39:02;1.50;;;0.43;;
7173;SDS011;3628;48.654;8.932;2023-03-13T09:46:47;0.70;;;0.53;;
7173;SDS011;3628;48.654;8.932;2023-03-13T09:52:13;0.23;;;0.23;;
7173;SDS011;3628;48.654;8.932;2023-03-13T09:54:45;1.33;;;0.43;;
7173;SDS011;3628;48.654;8.932;2023-03-13T09:57:40;1.23;;;0.50;;
7173;SDS011;3628;48.654;8.932;2023-03-13T10:00:24;0.50;;;0.40;;
7173;SDS011;3628;48.654;8.932;2023-03-13T10:02:54;2.80;;;0.60;;
7173;SDS011;3628;48.654;8.932;2023-03-13T10:05:28;3.67;;;0.90;;
7173;SDS011;3628;48.654;8.932;2023-03-13T10:07:59;0.50;;;0.50;;
7173;SDS011;3628;48.654;8.932;2023-03-13T10:10:39;1.17;;;0.40;;
7173;SDS011;3628;48.654;8.932;2023-03-13T10:13:16;1.33;;;0.70;;
7173;SDS011;3628;48.654;8.932;2023-03-13T10:18:16;5.60;;;0.70;;
7173;SDS011;3628;48.654;8.932;2023-03-13T10:20:46;1.67;;;0.33;;
7173;SDS011;3628;48.654;8.932;2023-03-13T10:25:44;0.70;;;0.60;;
7173;SDS011;3628;48.654;8.932;2023-03-13T10:28:11;1.17;;;0.73;;
7173;SDS011;3628;48.654;8.932;2023-03-13T10:30:39;1.45;;;0.57;;
7173;SDS011;3628;48.654;8.932;2023-03-13T10:35:44;1.75;;;0.55;;
7173;SDS011;3628;48.654;8.932;2023-03-13T10:38:11;1.17;;;0.55;;
7173;SDS011;3628;48.654;8.932;2023-03-13T10:40:37;1.00;;;0.50;;
7173;SDS011;3628;48.654;8.932;2023-03-13T10:43:38;0.73;;;0.70;;
7173;SDS011;3628;48.654;8.932;2023-03-13T10:45:56;3.25;;;0.82;;
7173;SDS011;3628;48.654;8.932;2023-03-13T10:48:24;2.17;;;0.70;;
7173;SDS011;3628;48.654;8.932;2023-03-13T10:50:53;1.92;;;0.85;;
7173;SDS011;3628;48.654;8.932;2023-03-13T10:53:23;2.47;;;0.70;;
7173;SDS011;3628;48.654;8.932;2023-03-13T10:55:59;2.50;;;0.63;;
7173;SDS011;3628;48.654;8.932;2023-03-13T10:58:36;1.33;;;0.50;;
7173;SDS011;3628;48.654;8.932;2023-03-13T11:01:21;2.33;;;0.80;;
7173;SDS011;3628;48.654;8.932;2023-03-13T11:03:50;2.85;;;0.70;;
7173;SDS011;3628;48.654;8.932;2023-03-13T11:06:25;1.63;;;0.60;;
7173;SDS011;3628;48.654;8.932;2023-03-13T11:09:00;0.50;;;0.50;;
7173;SDS011;3628;48.654;8.932;2023-03-13T11:11:48;1.23;;;0.50;;
7173;SDS011;3628;48.654;8.932;2023-03-13T11:14:18;0.77;;;0.60;;
7173;SDS011;3628;48.654;8.932;2023-03-13T11:16:46;0.85;;;0.63;;
7173;SDS011;3628;48.654;8.932;2023-03-13T11:19:26;0.63;;;0.47;;
7173;SDS011;3628;48.654;8.932;2023-03-13T11:24:56;0.77;;;0.67;;
7173;SDS011;3628;48.654;8.932;2023-03-13T11:33:39;0.80;;;0.50;;
7173;SDS011;3628;48.654;8.932;2023-03-13T11:39:13;0.85;;;0.60;;
7173;SDS011;3628;48.654;8.932;2023-03-13T11:41:59;0.85;;;0.50;;
7173;SDS011;3628;48.654;8.932;2023-03-13T11:45:00;1.90;;;0.52;;
7173;SDS011;3628;48.654;8.932;2023-03-13T11:47:34;5.38;;;0.70;;
7173;SDS011;3628;48.654;8.932;2023-03-13T11:52:45;0.75;;;0.55;;
7173;SDS011;3628;48.654;8.932;2023-03-13T11:58:01;0.80;;;0.47;;
7173;SDS011;3628;48.654;8.932;2023-03-13T12:00:32;0.93;;;0.40;;
7173;SDS011;3628;48.654;8.932;2023-03-13T12:05:47;1.88;;;0.45;;
7173;SDS011;3628;48.654;8.932;2023-03-13T12:08:19;2.60;;;0.60;;
7173;SDS011;3628;48.654;8.932;2023-03-13T12:11:05;0.75;;;0.40;;
7173;SDS011;3628;48.654;8.932;2023-03-13T12:13:49;5.25;;;0.70;;
7173;SDS011;3628;48.654;8.932;2023-03-13T12:16:34;1.63;;;0.60;;
7173;SDS011;3628;48.654;8.932;2023-03-13T12:19:10;0.75;;;0.43;;
7173;SDS011;3628;48.654;8.932;2023-03-13T12:22:11;0.70;;;0.50;;
7173;SDS011;3628;48.654;8.932;2023-03-13T12:24:44;3.33;;;0.80;;
7173;SDS011;3628;48.654;8.932;2023-03-13T12:27:35;2.33;;;0.52;;
7173;SDS011;3628;48.654;8.932;2023-03-13T12:30:17;3.40;;;0.70;;
7173;SDS011;3628;48.654;8.932;2023-03-13T12:35:57;0.95;;;0.55;;
7173;SDS011;3628;48.654;8.932;2023-03-13T12:38:39;2.38;;;0.30;;
7173;SDS011;3628;48.654;8.932;2023-03-13T12:43:49;0.82;;;0.40;;
7173;SDS011;3628;48.654;8.932;2023-03-13T12:59:48;0.70;;;0.30;;
7173;SDS011;3628;48.654;8.932;2023-03-13T13:02:19;0.55;;;0.55;;
7173;SDS011;3628;48.654;8.932;2023-03-13T13:04:48;1.85;;;0.40;;
7173;SDS011;3628;48.654;8.932;2023-03-13T13:07:22;1.48;;;0.40;;
7173;SDS011;3628;48.654;8.932;2023-03-13T13:15:37;1.13;;;0.40;;
7173;SDS011;3628;48.654;8.932;2023-03-13T13:18:25;4.35;;;0.60;;
7173;SDS011;3628;48.654;8.932;2023-03-13T13:28:53;2.78;;;0.40;;
7173;SDS011;3628;48.654;8.932;2023-03-13T13:36:55;2.78;;;0.60;;
7173;SDS011;3628;48.654;8.932;2023-03-13T13:39:45;2.72;;;0.88;;
7173;SDS011;3628;48.654;8.932;2023-03-13T13:47:38;0.25;;;0.25;;
7173;SDS011;3628;48.654;8.932;2023-03-13T13:50:16;4.97;;;0.40;;
7173;SDS011;3628;48.654;8.932;2023-03-13T13:52:43;3.08;;;0.75;;
7173;SDS011;3628;48.654;8.932;2023-03-13T13:57:51;1.45;;;0.30;;
7173;SDS011;3628;48.654;8.932;2023-03-13T14:00:37;1.20;;;0.57;;
7173;SDS011;3628;48.654;8.932;2023-03-13T14:03:17;0.50;;;0.30;;
7173;SDS011;3628;48.654;8.932;2023-03-13T14:08:41;2.17;;;0.47;;
7173;SDS011;3628;48.654;8.932;2023-03-13T14:14:07;1.30;;;0.52;;
7173;SDS011;3628;48.654;8.932;2023-03-13T14:16:34;0.93;;;0.50;;
7173;SDS011;3628;48.654;8.932;2023-03-13T14:19:02;4.40;;;0.60;;
7173;SDS011;3628;48.654;8.932;2023-03-13T14:21:27;8.70;;;0.80;;
7173;SDS011;3628;48.654;8.932;2023-03-13T14:23:53;3.08;;;0.60;;
7173;SDS011;3628;48.654;8.932;2023-03-13T14:26:26;5.65;;;0.75;;
7173;SDS011;3628;48.654;8.932;2023-03-13T14:28:55;1.83;;;0.65;;
7173;SDS011;3628;48.654;8.932;2023-03-13T14:31:27;1.95;;;0.63;;
7173;SDS011;3628;48.654;8.932;2023-03-13T14:33:58;7.38;;;0.98;;
7173;SDS011;3628;48.654;8.932;2023-03-13T14:36:26;3.85;;;0.77;;
7173;SDS011;3628;48.654;8.932;2023-03-13T14:41:40;0.52;;;0.30;;
7173;SDS011;3628;48.654;8.932;2023-03-13T14:44:20;1.65;;;0.70;;
7173;SDS011;3628;48.654;8.932;2023-03-13T14:46:52;1.45;;;0.50;;
7173;SDS011;3628;48.654;8.932;2023-03-13T14:49:21;0.88;;;0.50;;
7173;SDS011;3628;48.654;8.932;2023-03-13T14:52:35;0.60;;;0.45;;
7173;SDS011;3628;48.654;8.932;2023-03-13T14:54:56;6.07;;;0.57;;
7173;SDS011;3628;48.654;8.932;2023-03-13T14:57:26;0.77;;;0.57;;
7173;SDS011;3628;48.654;8.932;2023-03-13T14:59:53;2.67;;;0.50;;
7173;SDS011;3628;48.654;8.932;2023-03-13T15:02:26;3.53;;;0.50;;
7173;SDS011;3628;48.654;8.932;2023-03-13T15:05:05;4.25;;;1.00;;
7173;SDS011;3628;48.654;8.932;2023-03-13T15:07:41;2.22;;;0.40;;
7173;SDS011;3628;48.654;8.932;2023-03-13T15:12:43;0.50;;;0.50;;
7173;SDS011;3628;48.654;8.932;2023-03-13T15:15:10;0.55;;;0.40;;
7173;SDS011;3628;48.654;8.932;2023-03-13T15:17:36;0.82;;;0.40;;
7173;SDS011;3628;48.654;8.932;2023-03-13T15:20:02;0.93;;;0.40;;
7173;SDS011;3628;48.654;8.932;2023-03-13T15:22:35;1.35;;;0.47;;
7173;SDS011;3628;48.654;8.932;2023-03-13T15:25:03;1.13;;;0.60;;
7173;SDS011;3628;48.654;8.932;2023-03-13T15:27:38;5.70;;;0.63;;
7173;SDS011;3628;48.654;8.932;2023-03-13T15:30:04;1.08;;;0.40;;
7173;SDS011;3628;48.654;8.932;2023-03-13T15:32:32;0.90;;;0.45;;
7173;SDS011;3628;48.654;8.932;2023-03-13T15:34:59;0.60;;;0.50;;
7173;SDS011;3628;48.654;8.932;2023-03-13T15:37:26;0.77;;;0.60;;
7173;SDS011;3628;48.654;8.932;2023-03-13T15:39:53;2.92;;;0.90;;
7173;SDS011;3628;48.654;8.932;2023-03-13T15:42:20;2.03;;;0.50;;
7173;SDS011;3628;48.654;8.932;2023-03-13T15:44:46;2.30;;;0.65;;
7173;SDS011;3628;48.654;8.932;2023-03-13T15:47:16;2.67;;;0.70;;
7173;SDS011;3628;48.654;8.932;2023-03-13T15:49:44;0.80;;;0.45;;
7173;SDS011;3628;48.654;8.932;2023-03-13T15:52:14;0.90;;;0.40;;
7173;SDS011;3628;48.654;8.932;2023-03-13T15:54:46;0.57;;;0.50;;
7173;SDS011;3628;48.654;8.932;2023-03-13T15:57:16;0.50;;;0.30;;
7173;SDS011;3628;48.654;8.932;2023-03-13T15:59:46;1.75;;;0.50;;
7173;SDS011;3628;48.654;8.932;2023-03-13T16:02:16;2.47;;;0.73;;
7173;SDS011;3628;48.654;8.932;2023-03-13T16:04:43;0.65;;;0.60;;
7173;SDS011;3628;48.654;8.932;2023-03-13T16:07:10;1.13;;;0.52;;
7173;SDS011;3628;48.654;8.932;2023-03-13T16:09:38;0.95;;;0.50;;
7173;SDS011;3628;48.654;8.932;2023-03-13T16:12:04;2.50;;;1.33;;
7173;SDS011;3628;48.654;8.932;2023-03-13T16:14:31;0.63;;;0.50;;
7173;SDS011;3628;48.654;8.932;2023-03-13T16:16:57;1.73;;;0.50;;
7173;SDS011;3628;48.654;8.932;2023-03-13T16:19:22;2.20;;;0.50;;
7173;SDS011;3628;48.654;8.932;2023-03-13T16:21:48;0.57;;;0.40;;
7173;SDS011;3628;48.654;8.932;2023-03-13T16:24:14;1.98;;;0.52;;
7173;SDS011;3628;48.654;8.932;2023-03-13T16:26:41;1.83;;;0.38;;
7173;SDS011;3628;48.654;8.932;2023-03-13T16:29:10;2.65;;;0.60;;
7173;SDS011;3628;48.654;8.932;2023-03-13T16:31:36;0.85;;;0.50;;
7173;SDS011;3628;48.654;8.932;2023-03-13T16:34:02;0.50;;;0.50;;
7173;SDS011;3628;48.654;8.932;2023-03-13T16:36:28;1.15;;;0.57;;
7173;SDS011;3628;48.654;8.932;2023-03-13T16:38:55;0.60;;;0.50;;
7173;SDS011;3628;48.654;8.932;2023-03-13T16:41:23;0.57;;;0.50;;
7173;SDS011;3628;48.654;8.932;2023-03-13T16:43:51;0.68;;;0.50;;
7173;SDS011;3628;48.654;8.932;2023-03-13T16:46:19;1.15;;;0.60;;
7173;SDS011;3628;48.654;8.932;2023-03-13T16:48:46;2.25;;;0.57;;
7173;SDS011;3628;48.654;8.932;2023-03-13T16:51:13;1.13;;;0.52;;
7173;SDS011;3628;48.654;8.932;2023-03-13T16:53:41;1.02;;;0.80;;
7173;SDS011;3628;48.654;8.932;2023-03-13T16:56:13;1.13;;;0.47;;
7173;SDS011;3628;48.654;8.932;2023-03-13T16:58:43;1.52;;;0.50;;
7173;SDS011;3628;48.654;8.932;2023-03-13T17:01:09;0.30;;;0.30;;
7173;SDS011;3628;48.654;8.932;2023-03-13T17:03:35;1.25;;;0.60;;
7173;SDS011;3628;48.654;8.932;2023-03-13T17:06:00;1.80;;;0.30;;
7173;SDS011;3628;48.654;8.932;2023-03-13T17:08:26;16.38;;;9.25;;